Pelican State — WDE4433 — position and weather

sailwx.info

Track history (hours):
 
Tides and Currents Weather Stations Pressure Air Temp Water Temp Dewpoint Dewpoint Depression Visibility Wind Speed Wind Dir Waves Ship Positions

Pelican State

Owner: Crowley Petroleum Serives, Jacksonville, FL. More information available from US FCC via Universal Licensing System and Coast Guard Vessel Documentation Center.

Last reported at 2016-Jun-29 01:31 UTC. Time now 2016-Jun-29 02:06 UTC.
Position N 29°55' W 090°05'.

Length 183 m; draft 8.8 m.

Type: Tanker. MMSI: 367353110.

Date/timePositionNaut miles runAvg speedWind from/ knotsBaromVisibWave heightAir tempDewpointWater temp
2016-Jun-29 01:31N 29°55' W 090°05'0 0.0
2016-Jun-29 00:28N 29°55' W 090°05'0 0.0
2016-Jun-28 23:28N 29°55' W 090°05'0 0.0
2016-Jun-28 22:28N 29°55' W 090°05'0 0.0
2016-Jun-28 21:28N 29°55' W 090°05'0 0.0
2016-Jun-28 20:22N 29°55' W 090°05'0 0.0
2016-Jun-28 19:28N 29°55' W 090°05'0 0.0
2016-Jun-28 18:28N 29°55' W 090°05'0 0.0
2016-Jun-28 17:22N 29°55' W 090°05'0 0.0
2016-Jun-28 16:28N 29°55' W 090°05'0 0.0
2016-Jun-28 15:28N 29°55' W 090°05'0 0.0
2016-Jun-28 14:28N 29°55' W 090°05'0 0.0
2016-Jun-28 13:28N 29°55' W 090°05'0 0.0
2016-Jun-28 12:22N 29°55' W 090°05'0 0.0
2016-Jun-28 11:22N 29°55' W 090°05'0 0.0
2016-Jun-28 10:33N 29°55' W 090°05'3 2.9
2016-Jun-28 09:33N 29°57' W 090°04'9 9.3
2016-Jun-28 08:33N 29°52' W 089°54'9 9.2
2016-Jun-28 07:33N 29°45' W 090°01'41311.1
2016-Jun-26 18:30N 27°55' W 082°27'0 0.0
2016-Jun-26 17:33N 27°55' W 082°27'0 0.0
2016-Jun-26 16:33N 27°55' W 082°27'0 0.0
2016-Jun-26 15:33N 27°55' W 082°27'0 0.0
2016-Jun-26 14:33N 27°55' W 082°27'0 0.0
2016-Jun-26 13:33N 27°55' W 082°27'0 0.0
2016-Jun-26 12:33N 27°55' W 082°27'0 0.0
2016-Jun-26 11:33N 27°55' W 082°27'0 0.0
2016-Jun-26 10:33N 27°55' W 082°27'0 0.0
2016-Jun-26 09:33N 27°55' W 082°27'0 0.0
2016-Jun-26 08:33N 27°55' W 082°27'0 0.0
2016-Jun-26 07:33N 27°55' W 082°27'0 0.0
2016-Jun-26 06:33N 27°55' W 082°27'0 0.0
2016-Jun-26 05:33N 27°55' W 082°27'0 0.0
2016-Jun-26 04:33N 27°55' W 082°27'1 0.9
2016-Jun-26 03:33N 27°54' W 082°26'7 7.4
2016-Jun-26 02:33N 27°48' W 082°30'1110.7
2016-Jun-26 01:33N 27°39' W 082°37'182 4.9
2016-Jun-24 12:22N 25°44' W 079°59'1011.8
2016-Jun-24 11:33N 25°53' W 079°59'1211.9
2016-Jun-24 10:33N 26°04' W 080°04'3 3.0
2016-Jun-24 09:31N 26°06' W 080°07'0 0.0
2016-Jun-24 08:31N 26°06' W 080°07'0 0.0
2016-Jun-24 07:22N 26°06' W 080°07'0 0.0
2016-Jun-24 04:25N 26°06' W 080°07'0 0.0
2016-Jun-24 03:28N 26°06' W 080°07'0 0.0
2016-Jun-24 02:28N 26°06' W 080°07'0 0.0
2016-Jun-24 01:31N 26°06' W 080°07'0 0.0
2016-Jun-24 00:31N 26°06' W 080°07'0 0.0
2016-Jun-23 23:31N 26°06' W 080°07'0 0.0
2016-Jun-23 22:31N 26°06' W 080°07'0 0.0
2016-Jun-23 21:31N 26°06' W 080°07'0 0.0
2016-Jun-23 20:19N 26°06' W 080°07'0 0.0
2016-Jun-23 19:31N 26°06' W 080°07'0 0.0
2016-Jun-23 18:31N 26°06' W 080°07'0 0.0
2016-Jun-23 17:22N 26°06' W 080°07'0 0.0
2016-Jun-23 16:25N 26°06' W 080°07'0 0.0
2016-Jun-23 15:25N 26°06' W 080°07'0 0.0
2016-Jun-23 14:25N 26°06' W 080°07'0 0.0
2016-Jun-23 13:28N 26°06' W 080°07'0 0.0
2016-Jun-23 12:28N 26°06' W 080°07'0 0.0
2016-Jun-23 11:28N 26°06' W 080°07'0 0.0
2016-Jun-23 10:31N 26°06' W 080°07'0 0.0
2016-Jun-23 09:31N 26°06' W 080°07'0 0.0
2016-Jun-23 08:31N 26°06' W 080°07'0 0.0
2016-Jun-23 07:31N 26°06' W 080°07'0 0.0
2016-Jun-23 05:31N 26°06' W 080°07'0 0.0
2016-Jun-23 04:22N 26°06' W 080°07'0 0.0
2016-Jun-23 03:22N 26°06' W 080°07'0 0.0
2016-Jun-23 02:25N 26°06' W 080°07'0 0.0
2016-Jun-23 01:25N 26°06' W 080°07'0 0.0
2016-Jun-23 00:25N 26°06' W 080°07'0 0.0
2016-Jun-22 23:28N 26°06' W 080°07'0 0.0
2016-Jun-22 22:28N 26°06' W 080°07'0 0.0
2016-Jun-22 21:31N 26°06' W 080°07'0 0.0
2016-Jun-22 20:31N 26°06' W 080°07'0 0.0
2016-Jun-22 19:31N 26°06' W 080°07'0 0.0
2016-Jun-22 18:31N 26°06' W 080°07'0 0.4
2016-Jun-22 17:32N 26°06' W 080°07'5 5.3
2016-Jun-22 16:33N 26°08' W 080°02'9 8.5
2016-Jun-22 15:33N 26°14' W 079°56'7 7.2
2016-Jun-22 14:33N 26°20' W 079°51'1 1.2
2016-Jun-22 13:33N 26°21' W 079°50'4 3.6
2016-Jun-22 12:33N 26°18' W 079°52'3 3.3
2016-Jun-22 11:33N 26°14' W 079°51'3 3.4
2016-Jun-22 10:33N 26°11' W 079°51'3 3.2
2016-Jun-22 09:33N 26°08' W 079°52'3 3.3
2016-Jun-22 08:33N 26°05' W 079°52'10 9.6
2016-Jun-22 07:33N 25°55' W 079°53'  
2016-Jun-20 01:24N 29°44' W 089°60'910.7
2016-Jun-20 00:33N 29°52' W 089°57'2 2.0
2016-Jun-19 23:29N 29°53' W 089°54'0 0.0
2016-Jun-19 22:20N 29°53' W 089°54'0 0.0
2016-Jun-19 21:32N 29°53' W 089°54'0 0.0
2016-Jun-19 20:32N 29°53' W 089°54'0 0.0
2016-Jun-19 19:33N 29°53' W 089°54'0 0.2
2016-Jun-19 18:31N 29°53' W 089°54'9 9.2
2016-Jun-19 17:34N 29°58' W 090°03'9 8.5
2016-Jun-19 16:33N 29°56' W 090°13'10 3.0
2016-Jun-19 13:13N 29°59' W 090°24'0 0.0
2016-Jun-19 09:31N 29°59' W 090°24'0 0.0
2016-Jun-19 03:31N 29°59' W 090°24'0 0.0
2016-Jun-19 02:31N 29°59' W 090°24'  
Track history (hours):
 
Tides and Currents Weather Stations Pressure Air Temp Water Temp Dewpoint Dewpoint Depression Visibility Wind Speed Wind Dir Waves Ship Positions

Pelican State

Owner: Crowley Petroleum Serives, Jacksonville, FL. More information available from US FCC via Universal Licensing System and Coast Guard Vessel Documentation Center.

Last reported at 2016-Jun-29 01:31 UTC. Time now 2016-Jun-29 02:06 UTC.
Position N 29°55' W 090°05'.

Length 183 m; draft 8.8 m.

Type: Tanker. MMSI: 367353110.

Date/timePositionNaut miles runAvg speedWind from/ knotsBaromVisibWave heightAir tempDewpointWater temp
2016-Jun-29 01:31N 29°55' W 090°05'0 0.0
2016-Jun-29 00:28N 29°55' W 090°05'0 0.0
2016-Jun-28 23:28N 29°55' W 090°05'0 0.0
2016-Jun-28 22:28N 29°55' W 090°05'0 0.0
2016-Jun-28 21:28N 29°55' W 090°05'0 0.0
2016-Jun-28 20:22N 29°55' W 090°05'0 0.0
2016-Jun-28 19:28N 29°55' W 090°05'0 0.0
2016-Jun-28 18:28N 29°55' W 090°05'0 0.0
2016-Jun-28 17:22N 29°55' W 090°05'0 0.0
2016-Jun-28 16:28N 29°55' W 090°05'0 0.0
2016-Jun-28 15:28N 29°55' W 090°05'0 0.0
2016-Jun-28 14:28N 29°55' W 090°05'0 0.0
2016-Jun-28 13:28N 29°55' W 090°05'0 0.0
2016-Jun-28 12:22N 29°55' W 090°05'0 0.0
2016-Jun-28 11:22N 29°55' W 090°05'0 0.0
2016-Jun-28 10:33N 29°55' W 090°05'3 2.9
2016-Jun-28 09:33N 29°57' W 090°04'9 9.3
2016-Jun-28 08:33N 29°52' W 089°54'9 9.2
2016-Jun-28 07:33N 29°45' W 090°01'41311.1
2016-Jun-26 18:30N 27°55' W 082°27'0 0.0
2016-Jun-26 17:33N 27°55' W 082°27'0 0.0
2016-Jun-26 16:33N 27°55' W 082°27'0 0.0
2016-Jun-26 15:33N 27°55' W 082°27'0 0.0
2016-Jun-26 14:33N 27°55' W 082°27'0 0.0
2016-Jun-26 13:33N 27°55' W 082°27'0 0.0
2016-Jun-26 12:33N 27°55' W 082°27'0 0.0
2016-Jun-26 11:33N 27°55' W 082°27'0 0.0
2016-Jun-26 10:33N 27°55' W 082°27'0 0.0
2016-Jun-26 09:33N 27°55' W 082°27'0 0.0
2016-Jun-26 08:33N 27°55' W 082°27'0 0.0
2016-Jun-26 07:33N 27°55' W 082°27'0 0.0
2016-Jun-26 06:33N 27°55' W 082°27'0 0.0
2016-Jun-26 05:33N 27°55' W 082°27'0 0.0
2016-Jun-26 04:33N 27°55' W 082°27'1 0.9
2016-Jun-26 03:33N 27°54' W 082°26'7 7.4
2016-Jun-26 02:33N 27°48' W 082°30'1110.7
2016-Jun-26 01:33N 27°39' W 082°37'182 4.9
2016-Jun-24 12:22N 25°44' W 079°59'1011.8
2016-Jun-24 11:33N 25°53' W 079°59'1211.9
2016-Jun-24 10:33N 26°04' W 080°04'3 3.0
2016-Jun-24 09:31N 26°06' W 080°07'0 0.0
2016-Jun-24 08:31N 26°06' W 080°07'0 0.0
2016-Jun-24 07:22N 26°06' W 080°07'0 0.0
2016-Jun-24 04:25N 26°06' W 080°07'0 0.0
2016-Jun-24 03:28N 26°06' W 080°07'0 0.0
2016-Jun-24 02:28N 26°06' W 080°07'0 0.0
2016-Jun-24 01:31N 26°06' W 080°07'0 0.0
2016-Jun-24 00:31N 26°06' W 080°07'0 0.0
2016-Jun-23 23:31N 26°06' W 080°07'0 0.0
2016-Jun-23 22:31N 26°06' W 080°07'0 0.0
2016-Jun-23 21:31N 26°06' W 080°07'0 0.0
2016-Jun-23 20:19N 26°06' W 080°07'0 0.0
2016-Jun-23 19:31N 26°06' W 080°07'0 0.0
2016-Jun-23 18:31N 26°06' W 080°07'0 0.0
2016-Jun-23 17:22N 26°06' W 080°07'0 0.0
2016-Jun-23 16:25N 26°06' W 080°07'0 0.0
2016-Jun-23 15:25N 26°06' W 080°07'0 0.0
2016-Jun-23 14:25N 26°06' W 080°07'0 0.0
2016-Jun-23 13:28N 26°06' W 080°07'0 0.0
2016-Jun-23 12:28N 26°06' W 080°07'0 0.0
2016-Jun-23 11:28N 26°06' W 080°07'0 0.0
2016-Jun-23 10:31N 26°06' W 080°07'0 0.0
2016-Jun-23 09:31N 26°06' W 080°07'0 0.0
2016-Jun-23 08:31N 26°06' W 080°07'0 0.0
2016-Jun-23 07:31N 26°06' W 080°07'0 0.0
2016-Jun-23 05:31N 26°06' W 080°07'0 0.0
2016-Jun-23 04:22N 26°06' W 080°07'0 0.0
2016-Jun-23 03:22N 26°06' W 080°07'0 0.0
2016-Jun-23 02:25N 26°06' W 080°07'0 0.0
2016-Jun-23 01:25N 26°06' W 080°07'0 0.0
2016-Jun-23 00:25N 26°06' W 080°07'0 0.0
2016-Jun-22 23:28N 26°06' W 080°07'0 0.0
2016-Jun-22 22:28N 26°06' W 080°07'0 0.0
2016-Jun-22 21:31N 26°06' W 080°07'0 0.0
2016-Jun-22 20:31N 26°06' W 080°07'0 0.0
2016-Jun-22 19:31N 26°06' W 080°07'0 0.0
2016-Jun-22 18:31N 26°06' W 080°07'0 0.4
2016-Jun-22 17:32N 26°06' W 080°07'5 5.3
2016-Jun-22 16:33N 26°08' W 080°02'9 8.5
2016-Jun-22 15:33N 26°14' W 079°56'7 7.2
2016-Jun-22 14:33N 26°20' W 079°51'1 1.2
2016-Jun-22 13:33N 26°21' W 079°50'4 3.6
2016-Jun-22 12:33N 26°18' W 079°52'3 3.3
2016-Jun-22 11:33N 26°14' W 079°51'3 3.4
2016-Jun-22 10:33N 26°11' W 079°51'3 3.2
2016-Jun-22 09:33N 26°08' W 079°52'3 3.3
2016-Jun-22 08:33N 26°05' W 079°52'10 9.6
2016-Jun-22 07:33N 25°55' W 079°53'  
2016-Jun-20 01:24N 29°44' W 089°60'910.7
2016-Jun-20 00:33N 29°52' W 089°57'2 2.0
2016-Jun-19 23:29N 29°53' W 089°54'0 0.0
2016-Jun-19 22:20N 29°53' W 089°54'0 0.0
2016-Jun-19 21:32N 29°53' W 089°54'0 0.0
2016-Jun-19 20:32N 29°53' W 089°54'0 0.0
2016-Jun-19 19:33N 29°53' W 089°54'0 0.2
2016-Jun-19 18:31N 29°53' W 089°54'9 9.2
2016-Jun-19 17:34N 29°58' W 090°03'9 8.5
2016-Jun-19 16:33N 29°56' W 090°13'10 3.0
2016-Jun-19 13:13N 29°59' W 090°24'0 0.0
2016-Jun-19 09:31N 29°59' W 090°24'0 0.0
2016-Jun-19 03:31N 29°59' W 090°24'0 0.0
2016-Jun-19 02:31N 29°59' W 090°24'  

Dump ship's entire track history